Time;durP1;ratioP1;P1;durP2;ratioP2;P2;SDS_P1;SDS_P2;PMS_P1;PMS_P2;Temp;Humidity;BMP_temperature;BMP_pressure;BME280_temperature;BME280_humidity;BME280_pressure;Samples;Min_cycle;Max_cycle;Signal;HPM_P1;HPM_P2
2023/04/05 00:01:48;;;;;;;16.15;11.82;;;9.10;99.90;;;;;;5033190;28;20052;-75
2023/04/05 00:04:19;;;;;;;17.73;13.40;;;9.20;99.90;;;;;;5033237;28;20041;-75
2023/04/05 00:06:49;;;;;;;18.27;13.07;;;9.10;99.90;;;;;;5034625;28;20034;-75
2023/04/05 00:09:17;;;;;;;16.25;12.63;;;9.00;99.90;;;;;;5017486;28;20025;-75
2023/04/05 00:11:44;;;;;;;19.77;13.77;;;8.90;99.90;;;;;;5017248;28;20483;-75
2023/04/05 00:14:10;;;;;;;19.17;13.43;;;8.80;99.90;;;;;;5033351;28;20040;-75
2023/04/05 00:16:36;;;;;;;17.20;13.05;;;8.80;99.90;;;;;;5033006;28;20029;-75
2023/04/05 00:19:02;;;;;;;20.75;13.27;;;8.80;99.90;;;;;;5032987;28;20045;-75
2023/04/05 00:21:28;;;;;;;22.35;13.27;;;8.80;99.90;;;;;;5016809;28;20384;-75
2023/04/05 00:23:56;;;;;;;17.45;12.40;;;8.80;99.90;;;;;;5033033;28;20041;-75
2023/04/05 00:26:22;;;;;;;17.08;12.98;;;8.70;99.90;;;;;;5023300;28;20033;-75
2023/04/05 00:28:48;;;;;;;15.80;12.90;;;8.70;99.90;;;;;;5052466;28;20052;-75
2023/04/05 00:31:14;;;;;;;17.27;13.18;;;8.70;99.90;;;;;;5052567;28;20033;-75
2023/04/05 00:33:40;;;;;;;17.20;13.20;;;8.70;99.90;;;;;;5019060;28;20041;-75
2023/04/05 00:36:10;;;;;;;17.20;12.27;;;8.60;99.90;;;;;;5052854;28;20025;-75
2023/04/05 00:38:37;;;;;;;18.47;13.80;;;8.50;99.90;;;;;;5053034;28;20036;-75
2023/04/05 00:41:03;;;;;;;18.48;14.13;;;8.50;99.90;;;;;;5036039;28;20488;-75
2023/04/05 00:43:29;;;;;;;16.98;13.32;;;8.40;99.90;;;;;;5048741;28;20064;-75
2023/04/05 00:45:56;;;;;;;18.17;12.82;;;8.40;99.90;;;;;;5024751;28;20022;-75
2023/04/05 00:48:22;;;;;;;19.92;12.52;;;8.40;99.90;;;;;;5014061;28;20030;-75
2023/04/05 00:50:49;;;;;;;15.32;12.73;;;8.40;99.90;;;;;;5004359;28;20153;-75
2023/04/05 00:53:18;;;;;;;17.17;13.73;;;8.40;99.90;;;;;;5014078;28;20037;-74
2023/04/05 00:55:48;;;;;;;15.57;12.20;;;8.40;99.90;;;;;;5012908;28;20512;-75
2023/04/05 00:58:18;;;;;;;18.23;13.15;;;8.40;99.90;;;;;;5012665;28;20033;-75
2023/04/05 01:00:46;;;;;;;16.20;12.35;;;8.40;99.90;;;;;;5013243;28;20040;-75
2023/04/05 01:03:12;;;;;;;17.75;15.32;;;8.30;99.90;;;;;;5011876;28;20036;-74
2023/04/05 01:05:46;;;;;;;18.20;14.75;;;8.30;99.90;;;;;;4995854;28;20118;-75
2023/04/05 01:08:21;;;;;;;16.30;12.65;;;8.40;99.90;;;;;;4996193;28;20042;-75
2023/04/05 01:10:50;;;;;;;17.05;12.25;;;8.30;99.90;;;;;;5012668;28;20034;-75
2023/04/05 01:13:16;;;;;;;16.98;12.38;;;8.20;99.90;;;;;;5012511;28;20037;-75
2023/04/05 01:15:42;;;;;;;19.77;12.85;;;8.10;99.90;;;;;;5011746;28;20041;-75
2023/04/05 01:18:11;;;;;;;21.35;12.35;;;8.00;99.90;;;;;;5011921;28;20044;-75
2023/04/05 01:20:41;;;;;;;16.02;12.25;;;8.00;99.90;;;;;;5012498;28;20034;-75
2023/04/05 01:23:18;;;;;;;15.73;12.27;;;8.00;99.90;;;;;;5012272;28;20069;-75
2023/04/05 01:26:02;;;;;;;17.73;12.45;;;8.00;99.90;;;;;;5013616;28;20030;-75
2023/04/05 01:28:43;;;;;;;14.15;11.55;;;8.00;99.90;;;;;;5033181;28;20034;-75
2023/04/05 01:31:21;;;;;;;17.85;11.77;;;8.00;99.90;;;;;;5031327;28;20021;-75
2023/04/05 01:33:55;;;;;;;15.18;11.73;;;8.00;99.90;;;;;;5032938;28;20029;-75
2023/04/05 01:36:31;;;;;;;15.63;12.00;;;8.00;99.90;;;;;;5031889;28;20021;-75
2023/04/05 01:38:57;;;;;;;15.00;11.82;;;8.00;99.90;;;;;;5031856;28;20049;-75
2023/04/05 01:41:25;;;;;;;16.27;11.90;;;8.00;99.90;;;;;;5031684;28;20025;-75
2023/04/05 01:43:51;;;;;;;18.38;12.82;;;8.00;99.90;;;;;;5014420;28;20041;-75
2023/04/05 01:46:17;;;;;;;18.00;13.23;;;7.90;99.90;;;;;;5031381;28;20416;-75
2023/04/05 01:48:43;;;;;;;19.90;14.13;;;7.90;99.90;;;;;;5032721;28;20026;-75
2023/04/05 01:51:09;;;;;;;21.60;15.38;;;7.80;99.90;;;;;;5018305;28;20408;-75
2023/04/05 01:53:35;;;;;;;23.73;15.27;;;7.80;99.90;;;;;;5013097;28;20034;-75
2023/04/05 01:56:01;;;;;;;25.80;15.47;;;7.70;99.90;;;;;;4995407;28;20476;-75
2023/04/05 01:58:27;;;;;;;22.27;15.27;;;7.70;99.90;;;;;;5012660;28;20037;-75
2023/04/05 02:00:57;;;;;;;23.80;16.65;;;7.70;99.90;;;;;;4994463;28;20037;-75
2023/04/05 02:03:23;;;;;;;23.33;16.00;;;7.70;99.90;;;;;;5019383;28;20029;-75
2023/04/05 02:05:50;;;;;;;44.30;23.63;;;7.70;99.90;;;;;;5030189;28;20017;-75
2023/04/05 02:08:17;;;;;;;42.10;22.88;;;7.70;99.90;;;;;;5029387;28;20055;-75
2023/04/05 02:10:43;;;;;;;24.80;16.27;;;7.70;99.90;;;;;;5029646;28;20048;-75
2023/04/05 02:13:09;;;;;;;27.77;17.53;;;7.70;99.90;;;;;;5030779;28;20506;-75
2023/04/05 02:15:36;;;;;;;24.70;15.83;;;7.60;99.90;;;;;;5028450;28;20029;-75
2023/04/05 02:18:02;;;;;;;24.70;16.10;;;7.50;99.90;;;;;;5030992;28;20476;-75
2023/04/05 02:20:28;;;;;;;25.63;15.67;;;7.50;99.90;;;;;;5031081;28;20101;-76
2023/04/05 02:22:55;;;;;;;23.70;15.87;;;7.50;99.90;;;;;;5029732;28;20045;-75
2023/04/05 02:25:21;;;;;;;20.73;15.47;;;7.50;99.90;;;;;;5029676;28;20045;-75
2023/04/05 02:27:47;;;;;;;24.40;15.53;;;7.50;99.90;;;;;;5030602;28;20036;-75
2023/04/05 02:30:13;;;;;;;38.93;23.33;;;7.50;99.90;;;;;;5029323;28;20042;-75
2023/04/05 02:32:44;;;;;;;30.37;18.03;;;7.50;99.90;;;;;;5029555;28;20026;-75
2023/04/05 02:35:10;;;;;;;26.48;16.65;;;7.50;99.90;;;;;;5029680;28;20050;-75
2023/04/05 02:37:37;;;;;;;31.07;18.23;;;7.40;99.90;;;;;;5030383;28;20029;-75
2023/04/05 02:40:08;;;;;;;24.67;16.65;;;7.40;99.90;;;;;;5013961;28;20045;-75
2023/04/05 02:42:35;;;;;;;25.90;17.48;;;7.30;99.90;;;;;;5030650;28;20029;-75
2023/04/05 02:45:01;;;;;;;24.70;17.20;;;7.20;99.90;;;;;;5032086;28;20045;-75
2023/04/05 02:47:27;;;;;;;25.87;16.50;;;7.20;99.90;;;;;;5030233;28;20029;-75
2023/04/05 02:49:53;;;;;;;27.00;17.17;;;7.10;99.90;;;;;;5028176;28;20028;-74
2023/04/05 02:52:20;;;;;;;28.27;15.93;;;7.10;99.90;;;;;;5010839;28;20101;-75
2023/04/05 02:54:46;;;;;;;22.23;14.33;;;7.00;99.90;;;;;;5012352;28;20030;-75
2023/04/05 02:57:12;;;;;;;21.70;14.83;;;7.00;99.90;;;;;;5011877;28;20037;-74
2023/04/05 02:59:38;;;;;;;21.73;15.03;;;7.00;99.90;;;;;;5011076;28;20038;-75
2023/04/05 03:02:05;;;;;;;23.40;14.23;;;7.00;99.90;;;;;;5010653;28;20037;-75
2023/04/05 03:04:33;;;;;;;21.23;14.13;;;6.90;99.90;;;;;;4994781;28;20049;-75
2023/04/05 03:07:03;;;;;;;18.60;14.03;;;6.90;99.90;;;;;;5010181;28;20038;-75
2023/04/05 03:09:33;;;;;;;19.63;14.20;;;6.90;99.90;;;;;;4994804;28;20037;-75
2023/04/05 03:12:00;;;;;;;19.00;13.67;;;6.90;99.90;;;;;;5010726;28;20640;-75
2023/04/05 03:14:26;;;;;;;25.27;14.73;;;6.80;99.90;;;;;;4994909;28;20408;-75
2023/04/05 03:16:52;;;;;;;20.23;13.93;;;6.80;99.90;;;;;;5011804;28;20038;-75
2023/04/05 03:19:21;;;;;;;25.43;16.40;;;6.80;99.90;;;;;;5010886;28;20037;-75
2023/04/05 03:21:50;;;;;;;26.60;16.67;;;6.80;99.90;;;;;;5010997;28;20026;-75
2023/04/05 03:24:17;;;;;;;22.83;15.93;;;6.80;99.90;;;;;;5010673;28;20049;-75
2023/04/05 03:26:44;;;;;;;21.33;14.43;;;6.80;99.90;;;;;;5020988;28;20480;-74
2023/04/05 03:29:10;;;;;;;24.93;18.17;;;6.80;99.90;;;;;;5035495;28;20392;-75
2023/04/05 03:31:36;;;;;;;28.40;18.33;;;6.80;99.90;;;;;;5047774;28;20037;-75
2023/04/05 03:34:02;;;;;;;21.80;15.70;;;6.70;99.90;;;;;;5053463;28;20041;-75
2023/04/05 03:36:29;;;;;;;22.20;15.50;;;6.70;99.90;;;;;;5054015;28;20033;-75
2023/04/05 03:38:56;;;;;;;20.10;13.97;;;6.70;99.90;;;;;;5053911;28;20028;-75
2023/04/05 03:41:22;;;;;;;19.70;14.80;;;6.60;99.90;;;;;;5053479;28;20454;-75
2023/04/05 03:43:48;;;;;;;20.60;13.97;;;6.60;99.90;;;;;;5053819;28;20044;-75
2023/04/05 03:46:14;;;;;;;21.60;14.30;;;6.60;99.90;;;;;;5053394;28;20036;-75
2023/04/05 03:48:40;;;;;;;18.27;13.50;;;6.60;99.90;;;;;;5053743;28;20029;-75
2023/04/05 03:51:07;;;;;;;21.07;14.00;;;6.50;99.90;;;;;;5039479;28;20041;-75
2023/04/05 03:53:33;;;;;;;19.03;13.33;;;6.50;99.90;;;;;;5033656;28;20037;-75
2023/04/05 03:55:59;;;;;;;19.30;13.37;;;6.50;99.90;;;;;;5034512;28;20033;-75
2023/04/05 03:58:25;;;;;;;22.23;13.47;;;6.50;99.90;;;;;;5001051;28;20037;-75
2023/04/05 04:00:52;;;;;;;22.73;14.13;;;6.50;99.90;;;;;;5016657;28;20487;-75
2023/04/05 04:03:19;;;;;;;19.63;12.70;;;6.40;99.90;;;;;;5034683;28;20052;-75
2023/04/05 04:05:45;;;;;;;19.57;13.47;;;6.40;99.90;;;;;;5034719;28;20029;-75
2023/04/05 04:08:12;;;;;;;16.97;12.77;;;6.40;99.90;;;;;;5033376;28;20030;-75
2023/04/05 04:10:38;;;;;;;20.30;12.97;;;6.30;99.90;;;;;;5033111;28;20535;-75
2023/04/05 04:13:04;;;;;;;18.63;12.33;;;6.30;99.90;;;;;;5017086;28;20376;-75
2023/04/05 04:15:30;;;;;;;19.67;12.53;;;6.30;99.90;;;;;;5032861;28;20030;-75
2023/04/05 04:17:56;;;;;;;17.03;12.43;;;6.20;99.90;;;;;;5033358;28;20503;-75
2023/04/05 04:20:22;;;;;;;17.97;12.53;;;6.20;99.90;;;;;;5033278;28;20037;-75
2023/04/05 04:22:49;;;;;;;18.10;12.97;;;6.20;99.90;;;;;;5034180;28;20040;-75
2023/04/05 04:25:17;;;;;;;16.23;12.13;;;6.10;99.90;;;;;;5033996;28;20044;-75
2023/04/05 04:27:45;;;;;;;16.07;12.37;;;6.10;99.90;;;;;;5050616;28;20017;-75
2023/04/05 04:30:12;;;;;;;17.97;12.33;;;6.10;99.90;;;;;;5052549;28;20041;-75
2023/04/05 04:32:54;;;;;;;13.13;10.80;;;6.00;99.90;;;;;;5052972;28;20025;-75
2023/04/05 04:35:24;;;;;;;17.27;12.63;;;6.00;99.90;;;;;;5053062;28;20494;-75
2023/04/05 04:37:56;;;;;;;19.15;12.52;;;6.00;99.90;;;;;;5051735;28;20036;-75
2023/04/05 04:40:24;;;;;;;19.00;13.33;;;6.00;99.90;;;;;;5052874;28;20028;-75
2023/04/05 04:42:50;;;;;;;19.83;13.10;;;6.00;99.90;;;;;;5052605;28;20021;-75
2023/04/05 04:45:17;;;;;;;18.37;13.20;;;6.00;99.90;;;;;;5053260;28;20483;-75
2023/04/05 04:47:44;;;;;;;19.30;13.13;;;6.00;99.90;;;;;;5069567;28;20032;-75
2023/04/05 04:50:10;;;;;;;19.20;13.60;;;6.00;99.90;;;;;;5047517;28;20022;-75
2023/04/05 04:52:39;;;;;;;32.00;18.13;;;5.90;99.90;;;;;;5033306;28;20421;-75
2023/04/05 04:55:07;;;;;;;99.90;19.27;;;5.90;99.90;;;;;;5032634;28;20030;-75
2023/04/05 04:57:33;;;;;;;84.97;16.53;;;5.90;99.90;;;;;;5016121;28;20472;-75
2023/04/05 04:59:59;;;;;;;22.13;14.37;;;5.80;99.90;;;;;;5032538;28;20037;-75
2023/04/05 05:02:28;;;;;;;44.00;14.50;;;5.80;99.90;;;;;;5033286;28;20029;-75
2023/04/05 05:04:54;;;;;;;72.37;15.30;;;5.80;99.90;;;;;;5032253;28;20048;-75
2023/04/05 05:07:21;;;;;;;36.87;15.40;;;5.90;99.90;;;;;;5015617;28;20026;-75
2023/04/05 05:09:51;;;;;;;134.53;29.70;;;5.80;99.90;;;;;;5032346;28;20025;-75
2023/04/05 05:12:18;;;;;;;249.80;19.20;;;5.80;99.90;;;;;;5032732;28;20514;-75
2023/04/05 05:14:44;;;;;;;275.53;18.20;;;5.80;99.90;;;;;;5033453;28;20379;-75
2023/04/05 05:17:10;;;;;;;448.03;25.30;;;5.70;99.90;;;;;;5032920;28;20101;-75
2023/04/05 05:19:36;;;;;;;373.43;26.83;;;5.70;99.90;;;;;;5033275;28;20030;-75
2023/04/05 05:22:02;;;;;;;429.00;27.77;;;5.70;99.90;;;;;;5032799;28;20026;-75
2023/04/05 05:24:28;;;;;;;506.83;26.40;;;5.70;99.90;;;;;;5015275;28;20041;-75
2023/04/05 05:26:54;;;;;;;290.50;18.80;;;5.70;99.90;;;;;;5026064;28;20052;-75
2023/04/05 05:29:20;;;;;;;317.50;25.53;;;5.60;99.90;;;;;;5052887;28;20029;-75
2023/04/05 05:31:46;;;;;;;162.23;20.30;;;5.60;99.90;;;;;;5051366;28;20032;-75
2023/04/05 05:34:12;;;;;;;239.10;21.67;;;5.60;99.90;;;;;;5052978;28;20387;-75
2023/04/05 05:36:39;;;;;;;213.20;21.10;;;5.60;99.90;;;;;;5052682;28;20033;-75
2023/04/05 05:39:06;;;;;;;282.07;25.27;;;5.60;99.90;;;;;;5052902;28;20315;-75
2023/04/05 05:41:33;;;;;;;497.27;36.43;;;5.60;99.90;;;;;;5052607;28;20032;-75
2023/04/05 05:43:59;;;;;;;239.47;23.70;;;5.50;99.90;;;;;;5051163;28;20037;-75
2023/04/05 05:46:25;;;;;;;200.57;20.03;;;5.50;99.90;;;;;;5051188;28;20033;-75
2023/04/05 05:48:51;;;;;;;98.13;15.90;;;5.50;99.90;;;;;;5051452;28;20029;-75
2023/04/05 05:51:17;;;;;;;394.40;22.60;;;5.50;99.90;;;;;;5035473;28;20052;-75
2023/04/05 05:53:44;;;;;;;249.00;21.60;;;5.50;99.90;;;;;;5031516;28;20032;-75
2023/04/05 05:56:10;;;;;;;160.90;17.77;;;5.50;99.90;;;;;;5031476;28;20029;-75
2023/04/05 05:58:38;;;;;;;112.23;20.37;;;5.50;99.90;;;;;;5031426;28;20029;-75
2023/04/05 06:01:06;;;;;;;53.63;15.87;;;5.50;99.90;;;;;;5014683;28;20032;-75
2023/04/05 06:03:32;;;;;;;62.60;16.17;;;5.50;99.90;;;;;;5031297;28;20060;-75
2023/04/05 06:05:58;;;;;;;54.57;16.30;;;5.60;99.90;;;;;;5032045;28;20041;-75
2023/04/05 06:08:26;;;;;;;149.93;25.13;;;5.60;99.90;;;;;;5031440;28;20025;-75
2023/04/05 06:10:52;;;;;;;113.93;20.47;;;5.60;99.90;;;;;;5032362;28;20033;-75
2023/04/05 06:13:19;;;;;;;203.03;32.80;;;5.60;99.90;;;;;;5014526;28;20034;-75
2023/04/05 06:15:46;;;;;;;114.33;19.03;;;5.60;99.90;;;;;;5030820;28;20026;-75
2023/04/05 06:18:13;;;;;;;85.27;17.67;;;5.50;99.90;;;;;;5031108;28;20033;-75
2023/04/05 06:20:43;;;;;;;80.43;19.03;;;5.50;99.90;;;;;;5030983;28;20380;-75
2023/04/05 06:23:09;;;;;;;53.07;21.17;;;5.60;99.90;;;;;;5032294;28;20464;-75
2023/04/05 06:25:36;;;;;;;138.13;24.70;;;5.70;99.90;;;;;;5030969;28;20303;-75
2023/04/05 06:28:02;;;;;;;53.33;20.13;;;5.70;99.90;;;;;;5031061;28;20033;-75
2023/04/05 06:30:29;;;;;;;86.83;17.27;;;5.80;99.90;;;;;;5014405;28;20326;-75
2023/04/05 06:32:55;;;;;;;88.30;15.80;;;5.90;99.90;;;;;;5014730;28;20032;-75
2023/04/05 06:35:21;;;;;;;76.57;15.63;;;5.90;99.90;;;;;;5031835;28;20037;-75
2023/04/05 06:37:47;;;;;;;112.00;16.40;;;6.00;99.90;;;;;;5030989;28;20029;-75
2023/04/05 06:40:14;;;;;;;85.70;15.03;;;6.10;99.90;;;;;;5013883;28;20033;-76
2023/04/05 06:42:40;;;;;;;117.20;16.17;;;6.20;99.90;;;;;;5032044;28;20109;-76
2023/04/05 06:45:06;;;;;;;37.57;13.57;;;6.20;99.90;;;;;;5032063;28;20064;-75
2023/04/05 06:47:36;;;;;;;32.13;12.97;;;6.20;99.90;;;;;;5050598;28;20070;-75
2023/04/05 06:50:04;;;;;;;18.50;13.07;;;6.30;99.90;;;;;;5045308;28;20037;-75
2023/04/05 06:52:30;;;;;;;72.88;31.40;;;6.30;99.90;;;;;;5030612;28;20053;-75
2023/04/05 06:54:57;;;;;;;31.90;16.63;;;6.50;99.90;;;;;;5014135;28;20037;-75
2023/04/05 06:57:23;;;;;;;18.17;12.38;;;6.70;99.90;;;;;;4997478;28;20373;-75
2023/04/05 06:59:51;;;;;;;31.83;18.30;;;6.90;99.90;;;;;;5032207;28;20030;-75
2023/04/05 07:02:17;;;;;;;22.83;16.65;;;7.10;99.90;;;;;;5032484;28;20033;-76
2023/04/05 07:04:43;;;;;;;16.50;12.75;;;7.40;99.90;;;;;;5035428;28;20041;-76
2023/04/05 07:07:09;;;;;;;15.38;12.40;;;7.60;99.90;;;;;;5034770;28;20025;-76
2023/04/05 07:09:36;;;;;;;13.57;11.95;;;7.90;99.90;;;;;;5035909;28;20040;-76
2023/04/05 07:12:02;;;;;;;13.80;11.23;;;8.20;99.90;;;;;;5018257;28;20021;-76
2023/04/05 07:14:29;;;;;;;14.88;11.70;;;8.50;99.90;;;;;;5034649;28;20392;-76
2023/04/05 07:16:56;;;;;;;14.32;12.05;;;8.70;99.90;;;;;;5034071;28;20495;-75
2023/04/05 07:19:22;;;;;;;17.17;12.02;;;8.90;99.90;;;;;;5034057;28;20028;-75
2023/04/05 07:21:48;;;;;;;12.55;11.20;;;9.20;99.90;;;;;;5018021;28;20025;-76
2023/04/05 07:24:14;;;;;;;18.27;13.52;;;9.40;99.90;;;;;;5017807;28;20029;-75
2023/04/05 07:26:40;;;;;;;22.75;15.05;;;9.70;99.90;;;;;;5026085;28;20049;-75
2023/04/05 07:29:07;;;;;;;17.83;13.07;;;9.90;99.90;;;;;;5054234;28;20029;-75
2023/04/05 07:31:34;;;;;;;14.30;12.80;;;10.10;99.90;;;;;;5054813;28;20541;-76
2023/04/05 07:34:00;;;;;;;16.50;12.32;;;10.40;99.90;;;;;;5054985;28;20033;-76
2023/04/05 07:36:29;;;;;;;18.65;11.30;;;10.60;99.90;;;;;;5054190;28;20028;-76
2023/04/05 07:38:56;;;;;;;15.63;12.27;;;10.80;99.90;;;;;;5053969;28;20033;-76
2023/04/05 07:41:23;;;;;;;13.18;11.57;;;11.00;99.90;;;;;;5053810;28;20024;-76
2023/04/05 07:43:50;;;;;;;21.20;13.77;;;11.20;99.90;;;;;;5054058;28;20498;-76
2023/04/05 07:46:16;;;;;;;20.35;13.43;;;11.40;99.90;;;;;;5070083;28;20033;-76
2023/04/05 07:48:42;;;;;;;19.00;14.23;;;11.60;99.90;;;;;;5053282;28;20395;-76
2023/04/05 07:51:09;;;;;;;15.05;13.40;;;11.80;99.90;;;;;;5040810;28;20153;-76
2023/04/05 07:53:35;;;;;;;15.68;12.60;;;11.90;99.90;;;;;;5033119;28;20045;-75
2023/04/05 07:56:13;;;;;;;18.55;13.20;;;12.10;99.90;;;;;;5035039;28;20040;-76
2023/04/05 07:58:42;;;;;;;14.00;12.13;;;12.30;99.90;;;;;;5033736;28;20029;-75
2023/04/05 08:01:09;;;;;;;15.80;12.55;;;12.50;99.90;;;;;;5032107;28;20041;-76
2023/04/05 08:03:35;;;;;;;14.45;12.30;;;12.70;99.90;;;;;;5017278;28;20025;-76
2023/04/05 08:06:10;;;;;;;14.65;13.07;;;12.80;99.90;;;;;;5016682;28;20057;-75
2023/04/05 08:08:36;;;;;;;17.58;15.70;;;12.90;99.90;;;;;;5033536;28;20033;-75
2023/04/05 08:11:02;;;;;;;18.52;15.88;;;13.00;99.90;;;;;;5034580;28;20041;-75
2023/04/05 08:13:29;;;;;;;17.60;15.70;;;13.10;99.90;;;;;;5033207;28;20479;-76
2023/04/05 08:15:59;;;;;;;16.08;14.45;;;13.20;99.90;;;;;;5033823;28;20037;-75
2023/04/05 08:18:25;;;;;;;15.35;13.70;;;13.40;99.90;;;;;;5033358;28;20029;-76
2023/04/05 08:20:53;;;;;;;16.10;14.10;;;13.30;99.90;;;;;;5033186;28;20037;-76
2023/04/05 08:23:19;;;;;;;16.38;14.68;;;13.40;99.90;;;;;;5016247;28;20036;-76
2023/04/05 08:25:45;;;;;;;16.08;13.23;;;13.50;99.90;;;;;;5034279;28;20044;-76
2023/04/05 08:28:11;;;;;;;15.70;14.20;;;13.70;99.90;;;;;;5053048;28;20399;-76
2023/04/05 08:30:41;;;;;;;14.50;13.00;;;13.70;99.90;;;;;;5053166;28;20040;-75
2023/04/05 08:33:07;;;;;;;17.23;13.20;;;13.80;99.90;;;;;;5052972;28;20025;-76
2023/04/05 08:35:35;;;;;;;15.48;13.98;;;14.10;99.90;;;;;;5052841;28;20040;-76
2023/04/05 08:38:01;;;;;;;15.32;13.85;;;14.10;99.90;;;;;;5054018;28;20029;-76
2023/04/05 08:40:41;;;;;;;15.82;14.07;;;14.20;99.90;;;;;;5054063;28;20029;-76
2023/04/05 08:43:51;;;;;;;13.60;12.30;;;14.40;99.90;;;;;;5035669;28;20033;-76
2023/04/05 08:46:17;;;;;;;15.55;13.57;;;14.60;99.90;;;;;;5050864;28;20041;-76
2023/04/05 08:48:43;;;;;;;16.02;13.32;;;15.00;99.90;;;;;;5052592;28;20390;-76
2023/04/05 08:51:09;;;;;;;14.80;13.32;;;15.10;99.90;;;;;;5054596;28;20045;-76
2023/04/05 08:53:35;;;;;;;17.23;14.25;;;15.30;99.90;;;;;;5016283;28;20021;-76
2023/04/05 08:56:02;;;;;;;15.70;14.10;;;15.40;99.90;;;;;;5032691;28;20052;-76
2023/04/05 08:58:28;;;;;;;14.23;13.02;;;15.50;99.90;;;;;;5032586;28;20480;-76
2023/04/05 09:00:54;;;;;;;15.10;13.60;;;15.70;99.90;;;;;;5015271;28;20045;-75
2023/04/05 09:03:22;;;;;;;14.45;12.85;;;15.60;99.90;;;;;;5016029;28;20369;-76
2023/04/05 09:05:50;;;;;;;15.25;13.38;;;15.60;99.90;;;;;;5016220;28;20046;-76
2023/04/05 09:08:16;;;;;;;14.38;12.95;;;15.90;99.90;;;;;;5032359;28;20025;-76
2023/04/05 09:10:42;;;;;;;14.52;12.80;;;16.10;99.90;;;;;;5015819;28;20468;-76
2023/04/05 09:13:09;;;;;;;14.55;13.15;;;16.20;99.90;;;;;;5033469;28;20041;-76
2023/04/05 09:15:38;;;;;;;13.93;12.43;;;16.30;99.90;;;;;;5031475;28;20396;-75
2023/04/05 09:18:04;;;;;;;15.43;12.38;;;16.30;99.90;;;;;;5015304;28;20030;-76
2023/04/05 09:20:30;;;;;;;14.38;12.70;;;16.40;99.90;;;;;;5015892;28;20033;-76
2023/04/05 09:22:56;;;;;;;14.05;11.80;;;16.50;99.90;;;;;;5032127;28;20029;-76
2023/04/05 09:25:38;;;;;;;13.13;11.82;;;16.70;99.60;;;;;;4998527;28;20045;-75
2023/04/05 09:28:08;;;;;;;12.98;11.70;;;16.90;99.30;;;;;;5032826;28;20026;-76
2023/04/05 09:30:36;;;;;;;14.00;11.45;;;17.10;98.50;;;;;;5032825;28;20040;-75
2023/04/05 09:33:02;;;;;;;13.48;12.15;;;17.00;98.70;;;;;;5032040;28;20030;-76
2023/04/05 09:35:31;;;;;;;14.20;11.70;;;17.10;97.80;;;;;;5032020;28;20040;-76
2023/04/05 09:37:57;;;;;;;12.75;11.52;;;17.20;98.30;;;;;;5015506;28;20411;-76
2023/04/05 09:40:39;;;;;;;12.63;11.35;;;17.30;96.70;;;;;;5033016;28;20033;-76
2023/04/05 09:43:05;;;;;;;12.85;11.65;;;17.20;96.20;;;;;;5018773;28;20021;-76
2023/04/05 09:45:31;;;;;;;12.85;11.43;;;17.20;96.00;;;;;;5067690;28;20029;-76
2023/04/05 09:47:57;;;;;;;12.30;11.23;;;17.10;94.40;;;;;;5068193;28;20036;-76
2023/04/05 09:50:24;;;;;;;13.57;12.18;;;17.00;95.50;;;;;;5044678;28;20026;-76
2023/04/05 09:52:51;;;;;;;12.18;11.07;;;17.20;94.80;;;;;;5032551;28;20060;-76
2023/04/05 09:55:27;;;;;;;14.57;12.20;;;16.90;94.00;;;;;;5014645;28;20475;-76
2023/04/05 09:57:53;;;;;;;13.10;11.77;;;17.00;94.40;;;;;;5014884;28;20033;-75
2023/04/05 10:00:20;;;;;;;13.00;11.80;;;17.30;95.00;;;;;;5014613;28;20503;-76
2023/04/05 10:02:46;;;;;;;14.55;13.05;;;17.40;91.60;;;;;;5031340;28;20022;-76
2023/04/05 10:05:14;;;;;;;13.77;12.15;;;17.50;92.20;;;;;;5032535;28;20534;-76
2023/04/05 10:07:41;;;;;;;14.90;13.07;;;17.50;92.80;;;;;;5032632;28;20030;-76
2023/04/05 10:10:08;;;;;;;14.48;13.18;;;17.80;91.40;;;;;;5031381;28;20026;-76
2023/04/05 10:12:37;;;;;;;14.32;12.93;;;17.80;91.20;;;;;;5030886;28;20021;-75
2023/04/05 10:15:04;;;;;;;13.90;12.50;;;18.00;92.10;;;;;;5014533;28;20048;-75
2023/04/05 10:17:55;;;;;;;15.50;13.75;;;18.00;90.60;;;;;;5013792;28;20033;-76
2023/04/05 10:20:22;;;;;;;14.60;13.40;;;18.10;85.60;;;;;;5031355;28;20052;-76
2023/04/05 10:22:53;;;;;;;13.60;12.13;;;17.20;85.60;;;;;;5032222;28;20088;-76
2023/04/05 10:25:25;;;;;;;16.30;12.60;;;16.90;90.30;;;;;;5031277;28;20383;-75
2023/04/05 10:27:58;;;;;;;13.65;12.25;;;16.50;87.00;;;;;;5050454;28;20037;-76
2023/04/05 10:30:25;;;;;;;14.07;12.57;;;15.90;89.20;;;;;;5050644;28;20033;-76
2023/04/05 10:32:51;;;;;;;13.38;12.07;;;15.80;90.50;;;;;;5050891;28;20479;-75
2023/04/05 10:35:44;;;;;;;17.52;12.52;;;15.60;90.50;;;;;;5052280;28;20463;-76
2023/04/05 10:38:28;;;;;;;13.68;12.27;;;15.40;91.10;;;;;;5008039;28;20047;-76
2023/04/05 10:40:57;;;;;;;15.85;12.15;;;15.60;92.40;;;;;;4962223;28;20392;-76
2023/04/05 10:43:25;;;;;;;13.38;12.02;;;16.00;92.20;;;;;;4959021;28;20457;-75
2023/04/05 10:45:53;;;;;;;13.05;11.75;;;16.60;93.70;;;;;;4973896;28;20137;-76
2023/04/05 10:48:55;;;;;;;12.90;11.35;;;17.00;92.40;;;;;;4974715;28;20050;-76
2023/04/05 10:51:23;;;;;;;13.98;12.68;;;17.40;93.10;;;;;;4974452;28;20050;-76
2023/04/05 10:53:49;;;;;;;15.13;13.73;;;17.80;87.60;;;;;;4974669;28;20045;-76
2023/04/05 10:56:15;;;;;;;15.02;13.40;;;17.10;85.80;;;;;;4990913;28;20066;-76
2023/04/05 10:58:41;;;;;;;14.60;13.07;;;17.00;90.40;;;;;;4991371;28;20413;-76
2023/04/05 11:01:08;;;;;;;15.82;14.13;;;17.50;91.00;;;;;;4990691;28;20486;-76
2023/04/05 11:03:48;;;;;;;14.50;13.18;;;17.70;86.70;;;;;;4974819;28;20039;-76
2023/04/05 11:06:25;;;;;;;13.95;12.68;;;17.00;87.30;;;;;;4974806;28;20039;-76
2023/04/05 11:08:58;;;;;;;14.95;13.50;;;17.30;90.60;;;;;;4991000;28;20035;-76
2023/04/05 11:11:26;;;;;;;13.88;12.48;;;17.20;90.00;;;;;;4973528;28;20038;-76
2023/04/05 11:13:55;;;;;;;14.18;12.68;;;17.40;87.10;;;;;;4974501;28;20155;-76
2023/04/05 11:16:22;;;;;;;15.20;13.57;;;17.40;90.30;;;;;;5034055;28;20033;-76
2023/04/05 11:18:49;;;;;;;13.95;12.60;;;16.90;85.30;;;;;;5038346;28;20028;-75
2023/04/05 11:21:21;;;;;;;14.63;12.77;;;16.70;88.00;;;;;;5020913;28;20060;-75
2023/04/05 11:24:06;;;;;;;13.65;12.15;;;16.70;84.20;;;;;;5037697;28;20029;-75
2023/04/05 11:26:39;;;;;;;12.57;11.30;;;16.60;82.10;;;;;;5054156;28;20048;-76
2023/04/05 11:29:06;;;;;;;14.43;13.02;;;16.70;89.60;;;;;;5054344;28;20036;-77
2023/04/05 11:31:32;;;;;;;14.32;12.82;;;17.10;89.40;;;;;;5053769;28;20037;-76
2023/04/05 11:33:59;;;;;;;13.40;12.15;;;17.60;88.40;;;;;;5054185;28;20382;-76
2023/04/05 11:36:30;;;;;;;13.38;12.18;;;18.00;89.90;;;;;;5054190;28;20025;-76
2023/04/05 11:39:18;;;;;;;19.20;11.90;;;18.40;87.40;;;;;;5054873;28;20021;-76
2023/04/05 11:41:52;;;;;;;15.70;14.20;;;18.60;87.50;;;;;;5055041;28;20471;-76
2023/04/05 11:44:18;;;;;;;16.60;15.02;;;18.80;86.70;;;;;;5053845;28;20040;-76
2023/04/05 11:46:45;;;;;;;16.58;15.05;;;18.90;84.60;;;;;;5053187;28;20044;-76
2023/04/05 11:49:12;;;;;;;17.30;14.73;;;18.80;82.90;;;;;;5053776;28;20032;-76
2023/04/05 11:51:41;;;;;;;16.88;15.38;;;18.90;81.80;;;;;;5036520;28;20038;-76
2023/04/05 11:54:08;;;;;;;17.05;15.40;;;18.90;82.60;;;;;;5033575;28;20030;-76
2023/04/05 11:56:34;;;;;;;14.45;13.05;;;19.10;84.50;;;;;;5033768;28;20040;-76
2023/04/05 11:59:00;;;;;;;15.10;13.70;;;19.30;86.30;;;;;;5034907;28;20034;-76
2023/04/05 12:01:27;;;;;;;15.93;12.95;;;19.30;85.20;;;;;;5034345;28;20030;-76
2023/04/05 12:03:54;;;;;;;17.75;16.00;;;19.30;84.20;;;;;;5034904;28;20025;-76
2023/04/05 12:06:24;;;;;;;16.60;15.10;;;19.20;82.50;;;;;;5033489;28;20037;-76
2023/04/05 12:08:50;;;;;;;17.20;15.57;;;19.30;82.60;;;;;;5032699;28;20034;-76
2023/04/05 12:11:23;;;;;;;17.23;15.82;;;19.30;82.60;;;;;;5017131;28;20026;-76
2023/04/05 12:13:53;;;;;;;16.77;15.48;;;19.50;82.50;;;;;;5033189;28;20503;-76
2023/04/05 12:16:20;;;;;;;17.13;15.63;;;19.50;81.80;;;;;;5017032;28;20037;-77
2023/04/05 12:18:55;;;;;;;17.58;15.98;;;19.40;81.30;;;;;;5033446;28;20356;-75
2023/04/05 12:21:21;;;;;;;15.15;13.95;;;19.60;80.40;;;;;;5017406;28;20388;-76
2023/04/05 12:23:48;;;;;;;18.05;16.45;;;19.80;81.10;;;;;;5016702;28;20503;-76
2023/04/05 12:26:14;;;;;;;16.65;15.05;;;19.80;78.10;;;;;;5021276;28;20064;-76
2023/04/05 12:28:56;;;;;;;17.05;15.55;;;19.60;79.00;;;;;;5052295;28;20033;-76
2023/04/05 12:31:41;;;;;;;17.80;16.30;;;19.50;79.30;;;;;;5053659;28;20044;-76
2023/04/05 12:34:08;;;;;;;15.15;13.85;;;19.60;78.90;;;;;;5054206;28;20025;-76
2023/04/05 12:36:34;;;;;;;17.52;15.95;;;19.40;78.20;;;;;;5053886;28;20032;-75
2023/04/05 12:39:00;;;;;;;16.92;15.52;;;19.30;76.70;;;;;;5035697;28;20376;-76